Terminal Aerodrome Forecast
Issued by NWS Tampa Bay Area, FL

Home | Current Version | Previous Version | Text Only | Print | Product List | Glossary Off
Versions: 1 2 3 4 5 6 7 8 9 10 11 12 13 14 15 16 17 18

000
FTUS42 KTBW 240523
TAFFMY
TAF
KFMY 240523Z 2406/2506 VRB03KT P6SM SCT040 BKN250
     FM241500 10005KT P6SM VCTS FEW020CB BKN100
     FM242100 22006KT P6SM VCTS SCT025CB OVC050
     FM250200 VRB03KT P6SM SCT020 BKN200=

USA.gov is the U.S. government's official web portal to all federal, state and local government web resources and services.